sensor_id;sensor_type;location;lat;lon;timestamp;temperature;humidity
78054;DHT22;67726;45.636;11.752;2023-04-07T00:00:27;8.10;48.70
78054;DHT22;67726;45.636;11.752;2023-04-07T00:02:53;8.10;50.50
78054;DHT22;67726;45.636;11.752;2023-04-07T00:05:19;8.10;49.00
78054;DHT22;67726;45.636;11.752;2023-04-07T00:07:44;8.10;48.80
78054;DHT22;67726;45.636;11.752;2023-04-07T00:10:10;8.20;48.70
78054;DHT22;67726;45.636;11.752;2023-04-07T00:12:35;8.20;48.50
78054;DHT22;67726;45.636;11.752;2023-04-07T00:15:01;8.10;48.20
78054;DHT22;67726;45.636;11.752;2023-04-07T00:17:27;8.10;48.30
78054;DHT22;67726;45.636;11.752;2023-04-07T00:19:53;8.20;48.80
78054;DHT22;67726;45.636;11.752;2023-04-07T00:22:18;8.20;49.00
78054;DHT22;67726;45.636;11.752;2023-04-07T00:24:44;8.10;49.00
78054;DHT22;67726;45.636;11.752;2023-04-07T00:27:09;8.20;49.00
78054;DHT22;67726;45.636;11.752;2023-04-07T00:29:35;8.00;48.40
78054;DHT22;67726;45.636;11.752;2023-04-07T00:32:01;8.10;48.90
78054;DHT22;67726;45.636;11.752;2023-04-07T00:34:26;8.00;49.30
78054;DHT22;67726;45.636;11.752;2023-04-07T00:36:52;7.80;48.30
78054;DHT22;67726;45.636;11.752;2023-04-07T00:39:18;7.80;48.80
78054;DHT22;67726;45.636;11.752;2023-04-07T00:41:44;7.70;49.30
78054;DHT22;67726;45.636;11.752;2023-04-07T00:44:11;7.80;50.00
78054;DHT22;67726;45.636;11.752;2023-04-07T00:46:36;7.70;49.70
78054;DHT22;67726;45.636;11.752;2023-04-07T00:49:02;7.60;49.80
78054;DHT22;67726;45.636;11.752;2023-04-07T00:51:28;7.90;49.60
78054;DHT22;67726;45.636;11.752;2023-04-07T00:53:54;7.60;49.30
78054;DHT22;67726;45.636;11.752;2023-04-07T00:56:20;7.70;49.30
78054;DHT22;67726;45.636;11.752;2023-04-07T00:58:46;7.70;49.90
78054;DHT22;67726;45.636;11.752;2023-04-07T01:01:31;7.60;49.20
78054;DHT22;67726;45.636;11.752;2023-04-07T01:04:11;7.40;50.30
78054;DHT22;67726;45.636;11.752;2023-04-07T01:06:46;7.70;49.90
78054;DHT22;67726;45.636;11.752;2023-04-07T01:09:22;7.70;49.60
78054;DHT22;67726;45.636;11.752;2023-04-07T01:12:07;7.90;49.00
78054;DHT22;67726;45.636;11.752;2023-04-07T01:14:49;7.80;48.70
78054;DHT22;67726;45.636;11.752;2023-04-07T01:17:16;8.00;48.40
78054;DHT22;67726;45.636;11.752;2023-04-07T01:19:47;7.90;48.30
78054;DHT22;67726;45.636;11.752;2023-04-07T01:22:20;7.80;48.00
78054;DHT22;67726;45.636;11.752;2023-04-07T01:28:07;7.90;48.10
78054;DHT22;67726;45.636;11.752;2023-04-07T01:30:38;7.90;47.40
78054;DHT22;67726;45.636;11.752;2023-04-07T01:33:04;7.90;47.20
78054;DHT22;67726;45.636;11.752;2023-04-07T01:35:34;7.90;47.50
78054;DHT22;67726;45.636;11.752;2023-04-07T01:38:02;7.90;47.50
78054;DHT22;67726;45.636;11.752;2023-04-07T01:40:28;7.80;48.10
78054;DHT22;67726;45.636;11.752;2023-04-07T01:42:56;7.90;47.70
78054;DHT22;67726;45.636;11.752;2023-04-07T01:45:22;7.80;47.40
78054;DHT22;67726;45.636;11.752;2023-04-07T01:47:49;7.80;48.10
78054;DHT22;67726;45.636;11.752;2023-04-07T01:50:16;7.70;48.10
78054;DHT22;67726;45.636;11.752;2023-04-07T01:52:42;7.50;48.80
78054;DHT22;67726;45.636;11.752;2023-04-07T01:55:08;7.60;48.10
78054;DHT22;67726;45.636;11.752;2023-04-07T01:57:34;7.60;48.10
78054;DHT22;67726;45.636;11.752;2023-04-07T02:00:00;7.50;48.30
78054;DHT22;67726;45.636;11.752;2023-04-07T02:02:26;7.40;48.80
78054;DHT22;67726;45.636;11.752;2023-04-07T02:04:57;7.30;48.10
78054;DHT22;67726;45.636;11.752;2023-04-07T02:07:55;7.30;48.60
78054;DHT22;67726;45.636;11.752;2023-04-07T02:10:24;7.10;48.50
78054;DHT22;67726;45.636;11.752;2023-04-07T02:12:51;7.20;48.60
78054;DHT22;67726;45.636;11.752;2023-04-07T02:15:18;7.00;48.70
78054;DHT22;67726;45.636;11.752;2023-04-07T02:17:47;6.90;48.90
78054;DHT22;67726;45.636;11.752;2023-04-07T02:20:15;7.00;49.60
78054;DHT22;67726;45.636;11.752;2023-04-07T02:22:42;7.00;50.80
78054;DHT22;67726;45.636;11.752;2023-04-07T02:25:28;6.80;49.80
78054;DHT22;67726;45.636;11.752;2023-04-07T02:27:56;6.90;49.70
78054;DHT22;67726;45.636;11.752;2023-04-07T02:30:22;6.90;49.90
78054;DHT22;67726;45.636;11.752;2023-04-07T02:32:48;6.90;50.50
78054;DHT22;67726;45.636;11.752;2023-04-07T02:35:15;7.00;50.90
78054;DHT22;67726;45.636;11.752;2023-04-07T02:37:42;6.80;50.50
78054;DHT22;67726;45.636;11.752;2023-04-07T02:40:08;6.80;50.20
78054;DHT22;67726;45.636;11.752;2023-04-07T02:42:34;6.80;50.50
78054;DHT22;67726;45.636;11.752;2023-04-07T02:45:01;6.80;50.30
78054;DHT22;67726;45.636;11.752;2023-04-07T02:47:27;6.70;50.70
78054;DHT22;67726;45.636;11.752;2023-04-07T02:49:54;6.80;50.70
78054;DHT22;67726;45.636;11.752;2023-04-07T02:52:19;6.80;50.90
78054;DHT22;67726;45.636;11.752;2023-04-07T02:54:45;6.90;50.50
78054;DHT22;67726;45.636;11.752;2023-04-07T02:57:11;6.60;51.00
78054;DHT22;67726;45.636;11.752;2023-04-07T02:59:38;6.80;50.90
78054;DHT22;67726;45.636;11.752;2023-04-07T03:02:04;6.80;51.50
78054;DHT22;67726;45.636;11.752;2023-04-07T03:04:30;6.90;51.60
78054;DHT22;67726;45.636;11.752;2023-04-07T03:06:56;6.90;50.90
78054;DHT22;67726;45.636;11.752;2023-04-07T03:09:22;7.10;50.70
78054;DHT22;67726;45.636;11.752;2023-04-07T03:11:48;7.10;50.80
78054;DHT22;67726;45.636;11.752;2023-04-07T03:14:14;7.30;50.50
78054;DHT22;67726;45.636;11.752;2023-04-07T03:16:40;7.30;50.20
78054;DHT22;67726;45.636;11.752;2023-04-07T03:19:06;7.30;50.90
78054;DHT22;67726;45.636;11.752;2023-04-07T03:21:32;7.50;50.80
78054;DHT22;67726;45.636;11.752;2023-04-07T03:23:57;7.60;50.30
78054;DHT22;67726;45.636;11.752;2023-04-07T03:26:23;7.60;50.00
78054;DHT22;67726;45.636;11.752;2023-04-07T03:28:49;7.40;49.90
78054;DHT22;67726;45.636;11.752;2023-04-07T03:31:14;7.50;49.90
78054;DHT22;67726;45.636;11.752;2023-04-07T03:33:40;7.60;50.50
78054;DHT22;67726;45.636;11.752;2023-04-07T03:36:06;7.60;49.90
78054;DHT22;67726;45.636;11.752;2023-04-07T03:38:34;7.70;50.20
78054;DHT22;67726;45.636;11.752;2023-04-07T03:40:59;7.70;49.30
78054;DHT22;67726;45.636;11.752;2023-04-07T03:43:25;7.70;51.50
78054;DHT22;67726;45.636;11.752;2023-04-07T03:45:52;7.80;51.10
78054;DHT22;67726;45.636;11.752;2023-04-07T03:48:18;7.70;50.90
78054;DHT22;67726;45.636;11.752;2023-04-07T03:50:44;7.70;50.20
78054;DHT22;67726;45.636;11.752;2023-04-07T03:53:11;7.50;50.60
78054;DHT22;67726;45.636;11.752;2023-04-07T03:55:39;7.50;49.90
78054;DHT22;67726;45.636;11.752;2023-04-07T03:58:05;7.40;51.90
78054;DHT22;67726;45.636;11.752;2023-04-07T04:00:31;7.50;51.40
78054;DHT22;67726;45.636;11.752;2023-04-07T04:02:58;7.40;52.70
78054;DHT22;67726;45.636;11.752;2023-04-07T04:05:24;7.10;51.60
78054;DHT22;67726;45.636;11.752;2023-04-07T04:07:49;7.20;51.90
78054;DHT22;67726;45.636;11.752;2023-04-07T04:10:18;6.80;51.10
78054;DHT22;67726;45.636;11.752;2023-04-07T04:12:46;6.80;51.40
78054;DHT22;67726;45.636;11.752;2023-04-07T04:15:14;6.60;51.90
78054;DHT22;67726;45.636;11.752;2023-04-07T04:17:40;6.70;51.60
78054;DHT22;67726;45.636;11.752;2023-04-07T04:20:06;6.50;52.00
78054;DHT22;67726;45.636;11.752;2023-04-07T04:22:32;6.50;53.50
78054;DHT22;67726;45.636;11.752;2023-04-07T04:24:58;6.50;56.70
78054;DHT22;67726;45.636;11.752;2023-04-07T04:27:25;6.40;54.60
78054;DHT22;67726;45.636;11.752;2023-04-07T04:29:50;6.60;53.30
78054;DHT22;67726;45.636;11.752;2023-04-07T04:32:16;6.50;53.30
78054;DHT22;67726;45.636;11.752;2023-04-07T04:34:42;6.60;54.20
78054;DHT22;67726;45.636;11.752;2023-04-07T04:37:08;6.60;53.80
78054;DHT22;67726;45.636;11.752;2023-04-07T04:39:34;6.50;53.50
78054;DHT22;67726;45.636;11.752;2023-04-07T04:42:00;6.40;53.80
78054;DHT22;67726;45.636;11.752;2023-04-07T04:44:26;6.30;53.90
78054;DHT22;67726;45.636;11.752;2023-04-07T04:46:52;6.40;53.60
78054;DHT22;67726;45.636;11.752;2023-04-07T04:49:18;6.40;54.00
78054;DHT22;67726;45.636;11.752;2023-04-07T04:51:44;6.50;53.20
78054;DHT22;67726;45.636;11.752;2023-04-07T04:54:10;6.50;53.60
78054;DHT22;67726;45.636;11.752;2023-04-07T04:56:36;6.60;54.40
78054;DHT22;67726;45.636;11.752;2023-04-07T04:59:03;6.60;54.30
78054;DHT22;67726;45.636;11.752;2023-04-07T05:01:28;6.70;53.90
78054;DHT22;67726;45.636;11.752;2023-04-07T05:03:54;6.80;53.40
78054;DHT22;67726;45.636;11.752;2023-04-07T05:06:19;6.90;53.90
78054;DHT22;67726;45.636;11.752;2023-04-07T05:08:45;6.80;54.60
78054;DHT22;67726;45.636;11.752;2023-04-07T05:11:11;6.80;53.60
78054;DHT22;67726;45.636;11.752;2023-04-07T05:13:37;6.80;53.70
78054;DHT22;67726;45.636;11.752;2023-04-07T05:16:03;6.80;53.30
78054;DHT22;67726;45.636;11.752;2023-04-07T05:18:29;6.70;53.90
78054;DHT22;67726;45.636;11.752;2023-04-07T05:20:55;6.80;53.70
78054;DHT22;67726;45.636;11.752;2023-04-07T05:23:20;6.90;53.10
78054;DHT22;67726;45.636;11.752;2023-04-07T05:25:46;7.00;53.50
78054;DHT22;67726;45.636;11.752;2023-04-07T05:28:11;7.00;54.80
78054;DHT22;67726;45.636;11.752;2023-04-07T05:30:37;7.20;54.80
78054;DHT22;67726;45.636;11.752;2023-04-07T05:33:03;7.20;54.50
78054;DHT22;67726;45.636;11.752;2023-04-07T05:35:28;7.20;54.20
78054;DHT22;67726;45.636;11.752;2023-04-07T05:37:54;7.30;53.60
78054;DHT22;67726;45.636;11.752;2023-04-07T05:40:20;7.10;54.20
78054;DHT22;67726;45.636;11.752;2023-04-07T05:42:46;7.20;53.60
78054;DHT22;67726;45.636;11.752;2023-04-07T05:45:12;7.00;53.50
78054;DHT22;67726;45.636;11.752;2023-04-07T05:47:37;7.20;53.50
78054;DHT22;67726;45.636;11.752;2023-04-07T05:50:03;7.30;53.00
78054;DHT22;67726;45.636;11.752;2023-04-07T05:52:29;7.50;53.20
78054;DHT22;67726;45.636;11.752;2023-04-07T05:54:55;8.20;52.20
78054;DHT22;67726;45.636;11.752;2023-04-07T05:57:21;8.60;51.60
78054;DHT22;67726;45.636;11.752;2023-04-07T05:59:47;9.10;51.90
78054;DHT22;67726;45.636;11.752;2023-04-07T06:02:13;9.90;50.40
78054;DHT22;67726;45.636;11.752;2023-04-07T06:04:38;10.60;49.50
78054;DHT22;67726;45.636;11.752;2023-04-07T06:07:04;11.50;47.70
78054;DHT22;67726;45.636;11.752;2023-04-07T06:09:30;12.10;45.80
78054;DHT22;67726;45.636;11.752;2023-04-07T06:11:56;12.00;41.80
78054;DHT22;67726;45.636;11.752;2023-04-07T06:14:22;11.70;42.60
78054;DHT22;67726;45.636;11.752;2023-04-07T06:16:48;11.50;42.30
78054;DHT22;67726;45.636;11.752;2023-04-07T06:19:14;11.50;41.50
78054;DHT22;67726;45.636;11.752;2023-04-07T06:21:39;11.50;42.50
78054;DHT22;67726;45.636;11.752;2023-04-07T06:24:05;11.90;42.40
78054;DHT22;67726;45.636;11.752;2023-04-07T06:26:31;12.60;42.70
78054;DHT22;67726;45.636;11.752;2023-04-07T06:28:57;13.20;41.20
78054;DHT22;67726;45.636;11.752;2023-04-07T06:31:24;14.00;38.70
78054;DHT22;67726;45.636;11.752;2023-04-07T06:33:50;14.70;38.50
78054;DHT22;67726;45.636;11.752;2023-04-07T06:36:15;15.60;36.30
78054;DHT22;67726;45.636;11.752;2023-04-07T06:38:41;16.50;32.70
78054;DHT22;67726;45.636;11.752;2023-04-07T06:41:07;17.00;32.50
78054;DHT22;67726;45.636;11.752;2023-04-07T06:43:36;17.70;32.00
78054;DHT22;67726;45.636;11.752;2023-04-07T06:46:02;18.50;29.90
78054;DHT22;67726;45.636;11.752;2023-04-07T06:48:27;19.30;28.40
78054;DHT22;67726;45.636;11.752;2023-04-07T06:50:53;19.80;26.40
78054;DHT22;67726;45.636;11.752;2023-04-07T06:53:19;19.50;24.30
78054;DHT22;67726;45.636;11.752;2023-04-07T06:55:44;19.90;24.80
78054;DHT22;67726;45.636;11.752;2023-04-07T06:58:10;20.50;23.80
78054;DHT22;67726;45.636;11.752;2023-04-07T07:00:36;19.90;25.10
78054;DHT22;67726;45.636;11.752;2023-04-07T07:03:02;20.60;24.90
78054;DHT22;67726;45.636;11.752;2023-04-07T07:05:27;19.50;25.20
78054;DHT22;67726;45.636;11.752;2023-04-07T07:07:53;19.90;26.00
78054;DHT22;67726;45.636;11.752;2023-04-07T07:10:19;20.20;25.40
78054;DHT22;67726;45.636;11.752;2023-04-07T07:12:47;20.50;26.00
78054;DHT22;67726;45.636;11.752;2023-04-07T07:15:13;20.80;24.40
78054;DHT22;67726;45.636;11.752;2023-04-07T07:17:38;21.30;22.20
78054;DHT22;67726;45.636;11.752;2023-04-07T07:20:05;21.60;21.70
78054;DHT22;67726;45.636;11.752;2023-04-07T07:22:30;20.70;23.40
78054;DHT22;67726;45.636;11.752;2023-04-07T07:24:56;21.00;23.00
78054;DHT22;67726;45.636;11.752;2023-04-07T07:27:23;21.30;21.90
78054;DHT22;67726;45.636;11.752;2023-04-07T07:29:49;21.90;21.10
78054;DHT22;67726;45.636;11.752;2023-04-07T07:32:14;22.60;20.90
78054;DHT22;67726;45.636;11.752;2023-04-07T07:34:40;23.40;20.60
78054;DHT22;67726;45.636;11.752;2023-04-07T07:37:06;24.00;17.50
78054;DHT22;67726;45.636;11.752;2023-04-07T07:39:31;24.60;18.40
78054;DHT22;67726;45.636;11.752;2023-04-07T07:41:57;24.90;18.30
78054;DHT22;67726;45.636;11.752;2023-04-07T07:44:23;25.40;17.70
78054;DHT22;67726;45.636;11.752;2023-04-07T07:46:49;25.00;16.70
78054;DHT22;67726;45.636;11.752;2023-04-07T07:49:15;24.70;17.10
78054;DHT22;67726;45.636;11.752;2023-04-07T07:51:41;23.80;18.90
78054;DHT22;67726;45.636;11.752;2023-04-07T07:54:06;24.20;18.00
78054;DHT22;67726;45.636;11.752;2023-04-07T07:56:34;24.50;17.70
78054;DHT22;67726;45.636;11.752;2023-04-07T07:58:59;21.90;21.50
78054;DHT22;67726;45.636;11.752;2023-04-07T08:01:26;21.50;21.90
78054;DHT22;67726;45.636;11.752;2023-04-07T08:03:51;21.80;21.20
78054;DHT22;67726;45.636;11.752;2023-04-07T08:06:17;20.90;24.20
78054;DHT22;67726;45.636;11.752;2023-04-07T08:08:43;19.20;26.20
78054;DHT22;67726;45.636;11.752;2023-04-07T08:11:08;19.10;26.50
78054;DHT22;67726;45.636;11.752;2023-04-07T08:13:34;20.00;25.60
78054;DHT22;67726;45.636;11.752;2023-04-07T08:16:00;21.80;22.70
78054;DHT22;67726;45.636;11.752;2023-04-07T08:18:26;23.20;20.80
78054;DHT22;67726;45.636;11.752;2023-04-07T08:20:51;24.60;18.00
78054;DHT22;67726;45.636;11.752;2023-04-07T08:23:18;24.90;17.70
78054;DHT22;67726;45.636;11.752;2023-04-07T08:25:43;25.00;15.90
78054;DHT22;67726;45.636;11.752;2023-04-07T08:28:09;23.00;19.70
78054;DHT22;67726;45.636;11.752;2023-04-07T08:30:34;21.20;21.70
78054;DHT22;67726;45.636;11.752;2023-04-07T08:33:00;19.40;26.40
78054;DHT22;67726;45.636;11.752;2023-04-07T08:35:26;18.30;27.20
78054;DHT22;67726;45.636;11.752;2023-04-07T08:37:52;18.00;28.80
78054;DHT22;67726;45.636;11.752;2023-04-07T08:40:17;18.10;28.50
78054;DHT22;67726;45.636;11.752;2023-04-07T08:42:46;18.60;27.20
78054;DHT22;67726;45.636;11.752;2023-04-07T08:45:13;18.80;27.90
78054;DHT22;67726;45.636;11.752;2023-04-07T08:47:41;19.40;26.40
78054;DHT22;67726;45.636;11.752;2023-04-07T08:50:09;19.80;25.80
78054;DHT22;67726;45.636;11.752;2023-04-07T08:52:45;20.50;23.50
78054;DHT22;67726;45.636;11.752;2023-04-07T08:55:13;21.50;21.00
78054;DHT22;67726;45.636;11.752;2023-04-07T08:57:40;22.90;20.90
78054;DHT22;67726;45.636;11.752;2023-04-07T09:00:07;23.20;19.20
78054;DHT22;67726;45.636;11.752;2023-04-07T09:02:36;23.70;18.40
78054;DHT22;67726;45.636;11.752;2023-04-07T09:05:03;24.20;18.40
78054;DHT22;67726;45.636;11.752;2023-04-07T09:07:31;23.70;16.80
78054;DHT22;67726;45.636;11.752;2023-04-07T09:09:57;22.80;17.60
78054;DHT22;67726;45.636;11.752;2023-04-07T09:12:23;22.80;18.40
78054;DHT22;67726;45.636;11.752;2023-04-07T09:14:49;22.90;17.60
78054;DHT22;67726;45.636;11.752;2023-04-07T09:17:15;23.60;16.70
78054;DHT22;67726;45.636;11.752;2023-04-07T09:19:40;23.80;14.60
78054;DHT22;67726;45.636;11.752;2023-04-07T09:22:06;23.40;15.60
78054;DHT22;67726;45.636;11.752;2023-04-07T09:24:33;23.40;15.10
78054;DHT22;67726;45.636;11.752;2023-04-07T09:27:11;23.50;16.30
78054;DHT22;67726;45.636;11.752;2023-04-07T09:29:38;23.10;15.40
78054;DHT22;67726;45.636;11.752;2023-04-07T09:32:03;21.80;18.00
78054;DHT22;67726;45.636;11.752;2023-04-07T09:34:33;22.50;17.40
78054;DHT22;67726;45.636;11.752;2023-04-07T09:36:59;22.40;17.40
78054;DHT22;67726;45.636;11.752;2023-04-07T09:39:26;23.30;15.90
78054;DHT22;67726;45.636;11.752;2023-04-07T09:41:52;23.90;14.60
78054;DHT22;67726;45.636;11.752;2023-04-07T09:44:21;24.20;14.10
78054;DHT22;67726;45.636;11.752;2023-04-07T09:46:52;24.90;13.00
78054;DHT22;67726;45.636;11.752;2023-04-07T09:49:19;25.30;12.30
78054;DHT22;67726;45.636;11.752;2023-04-07T09:51:59;25.90;13.20
78054;DHT22;67726;45.636;11.752;2023-04-07T09:54:35;26.60;11.10
78054;DHT22;67726;45.636;11.752;2023-04-07T09:57:02;27.40;8.60
78054;DHT22;67726;45.636;11.752;2023-04-07T09:59:30;26.30;9.30
78054;DHT22;67726;45.636;11.752;2023-04-07T10:01:56;25.70;9.70
78054;DHT22;67726;45.636;11.752;2023-04-07T10:04:23;25.80;10.60
78054;DHT22;67726;45.636;11.752;2023-04-07T10:06:49;25.10;9.80
78054;DHT22;67726;45.636;11.752;2023-04-07T10:09:16;25.50;10.00
78054;DHT22;67726;45.636;11.752;2023-04-07T10:11:43;25.90;10.60
78054;DHT22;67726;45.636;11.752;2023-04-07T10:14:10;26.20;10.70
78054;DHT22;67726;45.636;11.752;2023-04-07T10:16:38;26.50;10.80
78054;DHT22;67726;45.636;11.752;2023-04-07T10:19:07;25.50;6.10
78054;DHT22;67726;45.636;11.752;2023-04-07T10:21:39;25.00;8.00
78054;DHT22;67726;45.636;11.752;2023-04-07T10:24:37;24.00;8.50
78054;DHT22;67726;45.636;11.752;2023-04-07T10:27:09;23.60;9.20
78054;DHT22;67726;45.636;11.752;2023-04-07T10:29:45;23.90;9.50
78054;DHT22;67726;45.636;11.752;2023-04-07T10:32:13;24.00;9.40
78054;DHT22;67726;45.636;11.752;2023-04-07T10:37:16;23.30;10.40
78054;DHT22;67726;45.636;11.752;2023-04-07T10:39:45;23.10;10.10
78054;DHT22;67726;45.636;11.752;2023-04-07T10:45:07;22.90;10.70
78054;DHT22;67726;45.636;11.752;2023-04-07T10:50:23;23.90;9.90
78054;DHT22;67726;45.636;11.752;2023-04-07T10:53:13;24.30;9.60
78054;DHT22;67726;45.636;11.752;2023-04-07T10:55:43;24.60;9.60
78054;DHT22;67726;45.636;11.752;2023-04-07T11:03:22;23.60;10.00
78054;DHT22;67726;45.636;11.752;2023-04-07T11:05:48;23.90;9.30
78054;DHT22;67726;45.636;11.752;2023-04-07T11:08:13;24.30;9.50
78054;DHT22;67726;45.636;11.752;2023-04-07T11:10:40;23.70;7.70
78054;DHT22;67726;45.636;11.752;2023-04-07T11:13:11;22.70;9.60
78054;DHT22;67726;45.636;11.752;2023-04-07T11:15:37;22.40;10.10
78054;DHT22;67726;45.636;11.752;2023-04-07T11:18:21;21.20;10.10
78054;DHT22;67726;45.636;11.752;2023-04-07T11:20:53;21.50;10.30
78054;DHT22;67726;45.636;11.752;2023-04-07T11:23:21;21.20;10.00
78054;DHT22;67726;45.636;11.752;2023-04-07T11:25:52;21.30;9.30
78054;DHT22;67726;45.636;11.752;2023-04-07T11:28:23;21.70;9.60
78054;DHT22;67726;45.636;11.752;2023-04-07T11:30:50;21.50;8.30
78054;DHT22;67726;45.636;11.752;2023-04-07T11:33:18;22.00;9.60
78054;DHT22;67726;45.636;11.752;2023-04-07T11:36:02;22.70;8.90
78054;DHT22;67726;45.636;11.752;2023-04-07T11:38:34;22.70;8.60
78054;DHT22;67726;45.636;11.752;2023-04-07T11:41:11;22.30;9.00
78054;DHT22;67726;45.636;11.752;2023-04-07T11:43:37;22.60;9.20
78054;DHT22;67726;45.636;11.752;2023-04-07T11:46:05;22.50;8.30
78054;DHT22;67726;45.636;11.752;2023-04-07T11:48:32;21.70;8.60
78054;DHT22;67726;45.636;11.752;2023-04-07T11:50:58;21.40;9.70
78054;DHT22;67726;45.636;11.752;2023-04-07T11:53:32;21.20;9.40
78054;DHT22;67726;45.636;11.752;2023-04-07T11:56:00;20.10;12.30
78054;DHT22;67726;45.636;11.752;2023-04-07T11:58:26;20.70;12.00
78054;DHT22;67726;45.636;11.752;2023-04-07T12:00:56;21.20;10.40
78054;DHT22;67726;45.636;11.752;2023-04-07T12:03:22;21.20;9.30
78054;DHT22;67726;45.636;11.752;2023-04-07T12:05:47;21.10;10.10
78054;DHT22;67726;45.636;11.752;2023-04-07T12:08:14;21.50;10.20
78054;DHT22;67726;45.636;11.752;2023-04-07T12:10:41;22.00;10.20
78054;DHT22;67726;45.636;11.752;2023-04-07T12:13:07;22.80;9.70
78054;DHT22;67726;45.636;11.752;2023-04-07T12:15:34;23.10;8.90
78054;DHT22;67726;45.636;11.752;2023-04-07T12:18:02;22.80;8.60
78054;DHT22;67726;45.636;11.752;2023-04-07T12:20:28;22.90;8.40
78054;DHT22;67726;45.636;11.752;2023-04-07T12:22:54;21.50;9.60
78054;DHT22;67726;45.636;11.752;2023-04-07T12:25:19;21.20;9.90
78054;DHT22;67726;45.636;11.752;2023-04-07T12:27:45;19.60;12.70
78054;DHT22;67726;45.636;11.752;2023-04-07T12:30:11;20.00;12.30
78054;DHT22;67726;45.636;11.752;2023-04-07T12:32:37;20.00;12.30
78054;DHT22;67726;45.636;11.752;2023-04-07T12:35:05;19.70;12.90
78054;DHT22;67726;45.636;11.752;2023-04-07T12:37:30;19.20;13.90
78054;DHT22;67726;45.636;11.752;2023-04-07T12:39:57;19.40;13.60
78054;DHT22;67726;45.636;11.752;2023-04-07T12:42:23;19.40;13.80
78054;DHT22;67726;45.636;11.752;2023-04-07T12:44:49;19.70;13.30
78054;DHT22;67726;45.636;11.752;2023-04-07T12:47:14;19.90;13.30
78054;DHT22;67726;45.636;11.752;2023-04-07T12:49:40;19.90;12.70
78054;DHT22;67726;45.636;11.752;2023-04-07T12:52:06;19.70;13.00
78054;DHT22;67726;45.636;11.752;2023-04-07T12:54:32;19.50;13.80
78054;DHT22;67726;45.636;11.752;2023-04-07T12:56:57;19.60;13.50
78054;DHT22;67726;45.636;11.752;2023-04-07T12:59:24;19.80;12.90
78054;DHT22;67726;45.636;11.752;2023-04-07T13:01:50;20.00;12.60
78054;DHT22;67726;45.636;11.752;2023-04-07T13:04:16;19.90;12.40
78054;DHT22;67726;45.636;11.752;2023-04-07T13:06:42;19.90;12.30
78054;DHT22;67726;45.636;11.752;2023-04-07T13:09:08;20.20;12.50
78054;DHT22;67726;45.636;11.752;2023-04-07T13:11:34;20.30;11.80
78054;DHT22;67726;45.636;11.752;2023-04-07T13:14:01;20.40;12.00
78054;DHT22;67726;45.636;11.752;2023-04-07T13:16:27;20.80;12.10
78054;DHT22;67726;45.636;11.752;2023-04-07T13:18:52;21.00;11.10
78054;DHT22;67726;45.636;11.752;2023-04-07T13:21:18;21.10;11.20
78054;DHT22;67726;45.636;11.752;2023-04-07T13:23:44;20.20;13.10
78054;DHT22;67726;45.636;11.752;2023-04-07T13:26:10;20.10;12.90
78054;DHT22;67726;45.636;11.752;2023-04-07T13:28:36;19.80;13.40
78054;DHT22;67726;45.636;11.752;2023-04-07T13:31:02;20.10;13.60
78054;DHT22;67726;45.636;11.752;2023-04-07T13:33:28;20.10;13.20
78054;DHT22;67726;45.636;11.752;2023-04-07T13:35:53;20.30;13.40
78054;DHT22;67726;45.636;11.752;2023-04-07T13:38:19;19.60;14.00
78054;DHT22;67726;45.636;11.752;2023-04-07T13:40:44;19.50;13.90
78054;DHT22;67726;45.636;11.752;2023-04-07T13:43:13;19.90;14.10
78054;DHT22;67726;45.636;11.752;2023-04-07T13:45:39;19.60;14.20
78054;DHT22;67726;45.636;11.752;2023-04-07T13:48:05;19.50;13.90
78054;DHT22;67726;45.636;11.752;2023-04-07T13:50:31;19.80;13.90
78054;DHT22;67726;45.636;11.752;2023-04-07T13:52:57;20.20;13.50
78054;DHT22;67726;45.636;11.752;2023-04-07T13:55:22;20.20;13.40
78054;DHT22;67726;45.636;11.752;2023-04-07T13:57:48;20.10;12.80
78054;DHT22;67726;45.636;11.752;2023-04-07T14:00:14;20.40;13.40
78054;DHT22;67726;45.636;11.752;2023-04-07T14:02:40;21.00;12.20
78054;DHT22;67726;45.636;11.752;2023-04-07T14:07:32;22.10;10.80
78054;DHT22;67726;45.636;11.752;2023-04-07T14:09:58;22.40;9.90
78054;DHT22;67726;45.636;11.752;2023-04-07T14:12:24;22.50;9.70
78054;DHT22;67726;45.636;11.752;2023-04-07T14:14:50;22.30;13.50
78054;DHT22;67726;45.636;11.752;2023-04-07T14:17:17;20.50;18.00
78054;DHT22;67726;45.636;11.752;2023-04-07T14:19:42;19.60;19.20
78054;DHT22;67726;45.636;11.752;2023-04-07T14:22:09;19.90;19.00
78054;DHT22;67726;45.636;11.752;2023-04-07T14:24:34;19.20;19.80
78054;DHT22;67726;45.636;11.752;2023-04-07T14:27:00;19.70;19.40
78054;DHT22;67726;45.636;11.752;2023-04-07T14:29:28;19.80;19.60
78054;DHT22;67726;45.636;11.752;2023-04-07T14:31:53;19.60;18.50
78054;DHT22;67726;45.636;11.752;2023-04-07T14:34:19;19.10;19.90
78054;DHT22;67726;45.636;11.752;2023-04-07T14:36:55;18.50;20.80
78054;DHT22;67726;45.636;11.752;2023-04-07T14:39:23;18.40;21.80
78054;DHT22;67726;45.636;11.752;2023-04-07T14:41:50;18.50;21.80
78054;DHT22;67726;45.636;11.752;2023-04-07T14:44:16;18.50;22.00
78054;DHT22;67726;45.636;11.752;2023-04-07T14:46:42;18.60;21.80
78054;DHT22;67726;45.636;11.752;2023-04-07T14:49:08;18.20;22.50
78054;DHT22;67726;45.636;11.752;2023-04-07T14:51:34;18.10;24.00
78054;DHT22;67726;45.636;11.752;2023-04-07T14:53:59;17.90;24.20
78054;DHT22;67726;45.636;11.752;2023-04-07T14:56:25;17.10;25.70
78054;DHT22;67726;45.636;11.752;2023-04-07T14:58:51;17.50;25.70
78054;DHT22;67726;45.636;11.752;2023-04-07T15:01:16;17.20;25.30
78054;DHT22;67726;45.636;11.752;2023-04-07T15:03:42;17.20;24.80
78054;DHT22;67726;45.636;11.752;2023-04-07T15:06:11;17.10;25.20
78054;DHT22;67726;45.636;11.752;2023-04-07T15:08:38;17.20;24.50
78054;DHT22;67726;45.636;11.752;2023-04-07T15:11:05;16.70;25.00
78054;DHT22;67726;45.636;11.752;2023-04-07T15:13:31;16.60;25.50
78054;DHT22;67726;45.636;11.752;2023-04-07T15:16:05;16.60;26.30
78054;DHT22;67726;45.636;11.752;2023-04-07T15:18:31;16.70;25.40
78054;DHT22;67726;45.636;11.752;2023-04-07T15:20:56;16.90;26.00
78054;DHT22;67726;45.636;11.752;2023-04-07T15:23:22;16.90;26.30
78054;DHT22;67726;45.636;11.752;2023-04-07T15:25:48;16.90;25.20
78054;DHT22;67726;45.636;11.752;2023-04-07T15:28:15;17.10;25.20
78054;DHT22;67726;45.636;11.752;2023-04-07T15:30:41;17.20;25.60
78054;DHT22;67726;45.636;11.752;2023-04-07T15:33:07;17.20;25.40
78054;DHT22;67726;45.636;11.752;2023-04-07T15:35:32;17.20;25.10
78054;DHT22;67726;45.636;11.752;2023-04-07T15:37:58;17.10;25.20
78054;DHT22;67726;45.636;11.752;2023-04-07T15:40:24;17.00;25.40